Time;durP1;ratioP1;P1;durP2;ratioP2;P2;SDS_P1;SDS_P2;PMS_P1;PMS_P2;Temp;Humidity;BMP_temperature;BMP_pressure;BME280_temperature;BME280_humidity;BME280_pressure;Samples;Min_cycle;Max_cycle;Signal;HPM_P1;HPM_P2
2023/03/26 14:10:25;;;;;;;5.00;1.10;;;;;;;20.03;41.69;100669.75;5119852;27;20433;-48
2023/03/26 14:13:14;;;;;;;5.70;1.45;;;;;;;20.99;39.61;100666.78;5109789;28;20040;-47
2023/03/26 14:15:47;;;;;;;3.42;0.82;;;;;;;21.66;38.39;100681.13;5109503;28;20047;-46
2023/03/26 14:18:53;;;;;;;3.13;1.10;;;;;;;22.25;37.13;100677.78;5108399;28;20503;-47
2023/03/26 14:21:28;;;;;;;3.03;1.08;;;;;;;22.67;36.81;100693.25;5100349;28;20046;-50
2023/03/26 14:24:16;;;;;;;2.83;0.90;;;;;;;22.90;36.16;100701.41;5108649;28;20035;-47
2023/03/26 14:26:48;;;;;;;4.40;1.00;;;;;;;23.01;36.13;100704.13;5101688;28;20043;-48
2023/03/26 14:29:28;;;;;;;4.40;1.05;;;;;;;23.13;35.70;100711.25;5107864;28;20036;-47
2023/03/26 14:32:23;;;;;;;2.42;0.85;;;;;;;23.30;35.43;100724.59;5109304;28;20036;-47
2023/03/26 14:34:56;;;;;;;6.38;2.05;;;;;;;23.35;35.20;100734.25;5104062;28;20423;-46
2023/03/26 14:37:24;;;;;;;6.18;2.42;;;;;;;23.28;35.58;100734.16;5108104;28;20019;-47
2023/03/26 14:39:57;;;;;;;6.90;2.45;;;;;;;23.16;34.94;100758.41;5109461;28;20028;-46
2023/03/26 14:42:31;;;;;;;6.55;2.10;;;;;;;23.20;34.87;100753.25;5109554;28;20088;-47
2023/03/26 14:45:03;;;;;;;7.30;2.70;;;;;;;23.42;35.01;100756.16;5108270;28;20032;-47
2023/03/26 14:47:35;;;;;;;5.63;2.22;;;;;;;23.38;34.80;100754.34;5107899;28;20110;-47
2023/03/26 14:50:41;;;;;;;4.72;1.80;;;;;;;23.31;34.62;100766.50;5108028;28;20036;-46
2023/03/26 14:53:17;;;;;;;7.43;1.90;;;;;;;23.17;35.14;100775.88;5105171;28;20036;-47
2023/03/26 14:56:02;;;;;;;6.30;1.60;;;;;;;23.32;34.50;100765.63;5108895;28;20100;-47
2023/03/26 14:58:42;;;;;;;7.18;1.80;;;;;;;23.36;33.88;100787.47;5107952;28;20099;-47
2023/03/26 15:01:38;;;;;;;6.38;1.77;;;;;;;23.49;34.09;100797.28;5107488;28;20031;-47
2023/03/26 15:04:25;;;;;;;4.57;1.88;;;;;;;23.47;34.42;100806.84;5108594;28;20020;-47
2023/03/26 15:07:18;;;;;;;4.70;1.70;;;;;;;23.36;34.57;100808.41;5099128;28;20059;-47
2023/03/26 15:10:05;;;;;;;4.50;1.17;;;;;;;23.48;34.47;100800.75;5098432;28;20569;-46
2023/03/26 15:12:42;;;;;;;5.05;1.40;;;;;;;23.63;34.37;100823.59;5101031;28;20496;-47
2023/03/26 15:15:38;;;;;;;4.68;1.75;;;;;;;23.66;34.50;100839.38;5103613;28;20515;-47
2023/03/26 15:18:31;;;;;;;5.35;1.40;;;;;;;23.62;34.42;100845.41;5107727;28;20499;-47
2023/03/26 15:21:22;;;;;;;6.05;1.23;;;;;;;23.61;34.28;100851.50;5085737;28;20044;-50
2023/03/26 15:24:13;;;;;;;6.05;1.30;;;;;;;23.61;34.62;100866.34;5088132;28;20511;-46
2023/03/26 15:27:03;;;;;;;6.55;1.63;;;;;;;23.46;34.68;100861.78;5078626;28;20043;-47
2023/03/26 15:30:00;;;;;;;4.05;1.33;;;;;;;23.42;34.71;100871.34;5086595;28;20072;-47
2023/03/26 15:32:31;;;;;;;3.80;1.45;;;;;;;23.42;35.23;100868.72;5087961;28;20542;-47
2023/03/26 15:35:22;;;;;;;4.78;2.13;;;;;;;23.57;34.88;100869.78;5094803;28;20035;-46
2023/03/26 15:38:04;;;;;;;7.72;2.55;;;;;;;23.59;35.37;100881.16;5065088;28;20032;-48
2023/03/26 15:40:55;;;;;;;5.88;2.53;;;;;;;23.55;35.27;100888.09;5094031;28;20114;-50
2023/03/26 15:43:23;;;;;;;4.53;2.10;;;;;;;23.55;35.50;100901.19;5095430;28;20024;-48
2023/03/26 15:46:11;;;;;;;4.40;2.10;;;;;;;23.53;35.39;100900.28;5094122;28;20158;-48
2023/03/26 15:49:10;;;;;;;4.90;2.03;;;;;;;23.53;35.63;100902.91;5087452;28;20076;-47
2023/03/26 15:51:57;;;;;;;4.13;2.08;;;;;;;23.67;35.77;100914.44;5088813;28;20067;-47
2023/03/26 15:54:30;;;;;;;4.50;1.80;;;;;;;23.58;35.77;100911.69;5088529;28;20067;-48
2023/03/26 15:57:27;;;;;;;6.13;1.92;;;;;;;23.66;35.54;100911.81;5094250;28;20028;-47
2023/03/26 16:00:33;;;;;;;3.58;1.67;;;;;;;23.63;35.95;100912.66;5087227;28;20032;-48
2023/03/26 16:03:11;;;;;;;6.18;2.15;;;;;;;23.65;36.05;100916.16;5091082;28;20476;-48
2023/03/26 16:05:41;;;;;;;3.97;1.60;;;;;;;23.65;36.22;100925.78;5095153;28;20485;-48
2023/03/26 16:08:35;;;;;;;4.53;1.85;;;;;;;23.61;36.44;100927.44;5094503;28;20028;-46
2023/03/26 16:11:06;;;;;;;5.50;2.10;;;;;;;23.68;35.95;100933.66;5091033;28;20040;-46
2023/03/26 16:13:39;;;;;;;7.47;2.00;;;;;;;23.62;36.38;100937.06;5093553;28;20051;-47
2023/03/26 16:16:15;;;;;;;4.53;1.73;;;;;;;23.62;36.44;100944.94;5094793;28;20036;-48
2023/03/26 16:18:47;;;;;;;5.00;1.63;;;;;;;23.67;36.66;100947.59;5094799;28;20032;-46
2023/03/26 16:21:30;;;;;;;5.65;1.42;;;;;;;23.66;36.74;100953.72;5094794;28;20026;-48
2023/03/26 16:24:19;;;;;;;6.30;1.88;;;;;;;23.70;36.72;100959.88;5094855;28;20057;-48
2023/03/26 16:27:08;;;;;;;5.18;1.80;;;;;;;23.74;36.77;100975.66;5094672;28;20048;-47
2023/03/26 16:29:56;;;;;;;6.22;1.95;;;;;;;23.87;36.10;100978.44;5094286;28;20034;-52
2023/03/26 16:32:28;;;;;;;3.97;1.92;;;;;;;23.91;36.17;100985.47;5093492;28;20583;-48
2023/03/26 16:35:18;;;;;;;4.38;1.90;;;;;;;23.78;36.42;100981.81;5094524;28;20492;-48
2023/03/26 16:38:04;;;;;;;7.57;3.05;;;;;;;23.78;36.59;100994.91;5094370;28;20075;-46
2023/03/26 16:40:35;;;;;;;5.13;2.40;;;;;;;23.74;36.49;101004.47;5094191;28;20043;-46
2023/03/26 16:43:23;;;;;;;7.32;2.53;;;;;;;23.73;36.72;101005.31;5093144;28;20055;-47
2023/03/26 16:46:10;;;;;;;5.82;2.08;;;;;;;23.75;36.65;101016.72;5088617;28;20036;-46
2023/03/26 16:49:01;;;;;;;7.93;2.20;;;;;;;23.74;36.66;101028.03;5094551;28;20110;-47
2023/03/26 16:51:44;;;;;;;6.90;2.40;;;;;;;23.73;36.35;101028.03;5093204;28;20573;-49
2023/03/26 16:54:31;;;;;;;4.60;2.20;;;;;;;23.66;36.56;101045.41;5094566;28;20059;-47
2023/03/26 16:57:00;;;;;;;5.43;2.20;;;;;;;23.64;36.86;101045.34;5088402;28;20059;-45
2023/03/26 17:00:06;;;;;;;12.02;2.08;;;;;;;23.69;36.67;101055.03;5093965;28;20055;-45
2023/03/26 17:02:45;;;;;;;6.07;2.08;;;;;;;23.76;36.58;101063.00;5089488;28;20043;-48
2023/03/26 17:05:33;;;;;;;6.50;1.83;;;;;;;23.73;36.93;101073.44;5094195;28;20028;-48
2023/03/26 17:08:12;;;;;;;5.25;2.42;;;;;;;23.73;36.22;101080.41;5087267;28;20089;-48
2023/03/26 17:10:46;;;;;;;6.28;1.80;;;;;;;23.82;36.51;101086.69;5091845;28;20567;-48
2023/03/26 17:13:19;;;;;;;;;;;;;;;23.88;36.43;101087.63;5093754;28;20028;-48
2023/03/26 17:15:57;;;;;;;7.20;1.75;;;;;;;23.84;36.58;101099.78;5093828;28;19995;-50
2023/03/26 17:18:33;;;;;;;5.03;2.13;;;;;;;23.80;36.55;101100.59;5093849;28;20038;-50
2023/03/26 17:21:04;;;;;;;5.32;2.67;;;;;;;23.87;36.33;101110.31;5093244;28;20054;-48
2023/03/26 17:23:55;;;;;;;5.30;2.58;;;;;;;23.85;36.42;101114.66;5093529;28;20024;-48
2023/03/26 17:26:26;;;;;;;4.78;2.42;;;;;;;23.92;36.34;101121.75;5076827;28;20079;-52
2023/03/26 17:29:17;;;;;;;8.02;3.28;;;;;;;23.87;36.76;101133.91;5091776;28;20028;-48
2023/03/26 17:32:10;;;;;;;6.90;2.83;;;;;;;23.88;36.47;101142.63;5093043;28;20050;-50
2023/03/26 17:34:39;;;;;;;10.07;3.33;;;;;;;23.87;36.65;101151.34;5089691;28;20066;-46
2023/03/26 17:37:25;;;;;;;6.90;2.85;;;;;;;23.88;36.75;101160.97;5093170;28;20028;-49
2023/03/26 17:39:57;;;;;;;5.95;2.65;;;;;;;23.83;36.88;101172.25;5092353;28;20115;-52
2023/03/26 17:42:31;;;;;;;6.88;2.72;;;;;;;23.86;36.92;101174.06;5091278;28;20042;-46
2023/03/26 17:45:01;;;;;;;7.95;2.42;;;;;;;23.70;36.88;101149.31;5092033;28;20034;-48
2023/03/26 17:47:50;;;;;;;6.03;2.70;;;;;;;23.78;37.17;101194.00;5093178;28;20107;-49
2023/03/26 17:50:21;;;;;;;9.65;2.47;;;;;;;23.86;36.90;101196.75;5091716;28;20110;-48
2023/03/26 17:52:54;;;;;;;6.75;2.75;;;;;;;23.93;36.73;101206.47;5092895;28;20058;-47
2023/03/26 17:55:29;;;;;;;6.05;2.60;;;;;;;23.86;36.66;101205.50;5091865;28;20028;-48
2023/03/26 17:58:00;;;;;;;6.10;2.53;;;;;;;23.91;36.85;101222.16;5092175;28;20026;-49
2023/03/26 18:00:40;;;;;;;5.32;2.50;;;;;;;23.91;36.65;101223.91;5091762;28;20426;-49
2023/03/26 18:03:20;;;;;;;7.95;2.70;;;;;;;23.93;36.91;101223.06;5091521;28;20028;-47
2023/03/26 18:05:49;;;;;;;6.30;1.98;;;;;;;23.87;36.99;101219.47;5091932;28;20028;-47
2023/03/26 18:08:40;;;;;;;4.47;2.20;;;;;;;23.80;36.83;101235.09;5092854;28;20067;-49
2023/03/26 18:11:35;;;;;;;5.88;2.20;;;;;;;23.70;37.58;101243.63;5085556;28;20032;-47
2023/03/26 18:14:41;;;;;;;5.73;2.13;;;;;;;23.72;37.19;101239.28;5091301;28;20073;-48
2023/03/26 18:17:09;;;;;;;3.72;1.98;;;;;;;23.60;37.04;101231.22;5089052;28;20032;-52
2023/03/26 18:19:49;;;;;;;4.82;2.75;;;;;;;23.71;37.63;101263.72;5092848;28;20103;-50
2023/03/26 18:22:23;;;;;;;4.25;2.30;;;;;;;23.79;37.24;101277.88;5091906;28;20027;-49
2023/03/26 18:24:58;;;;;;;5.17;2.33;;;;;;;23.78;37.25;101283.06;5091565;28;20028;-48
2023/03/26 18:27:26;;;;;;;;;;;;;;;23.79;37.11;101288.34;5092118;28;20082;-46
2023/03/26 18:30:00;;;;;;;5.82;2.72;;;;;;;23.69;37.59;101296.84;5074945;28;19916;-49
2023/03/26 18:32:32;;;;;;;5.63;3.53;;;;;;;23.73;37.65;101298.69;5092729;28;20366;-46
2023/03/26 18:35:03;;;;;;;8.45;3.78;;;;;;;23.72;37.47;101311.78;5092435;28;20020;-49
2023/03/26 18:37:33;;;;;;;9.68;3.95;;;;;;;23.67;37.67;101322.13;5092449;28;20017;-48
2023/03/26 18:40:11;;;;;;;13.55;4.78;;;;;;;23.63;37.77;101336.03;5091733;28;20480;-49
2023/03/26 18:42:40;;;;;;;10.48;5.05;;;;;;;23.72;37.64;101335.34;5092088;28;20032;-50
2023/03/26 18:45:27;;;;;;;14.23;6.07;;;;;;;23.78;37.67;101349.44;5091793;28;20031;-50
2023/03/26 18:48:20;;;;;;;11.50;6.20;;;;;;;23.88;37.41;101355.75;5082547;28;20115;-45
2023/03/26 18:50:54;;;;;;;12.15;6.70;;;;;;;23.91;37.89;101357.53;5090907;28;20035;-50
2023/03/26 18:53:24;;;;;;;13.57;7.60;;;;;;;23.93;37.61;101361.09;5091146;28;20032;-48
2023/03/26 18:55:53;;;;;;;18.83;7.88;;;;;;;23.84;37.81;101367.03;5092647;28;20119;-48
2023/03/26 18:58:25;;;;;;;12.90;8.10;;;;;;;23.76;38.26;101368.59;5096103;28;20032;-48
2023/03/26 19:01:06;;;;;;;22.00;9.35;;;;;;;23.84;38.04;101374.88;5096453;28;20469;-45
2023/03/26 19:03:37;;;;;;;18.83;8.23;;;;;;;23.75;38.19;101370.34;5095490;28;20043;-48
2023/03/26 19:06:09;;;;;;;14.88;8.25;;;;;;;23.95;37.96;101381.22;5095709;28;20026;-48
2023/03/26 19:08:39;;;;;;;15.65;7.72;;;;;;;23.97;37.76;101394.41;5095611;28;20050;-45
2023/03/26 19:11:09;;;;;;;16.20;8.32;;;;;;;24.00;37.87;101404.03;5094621;28;20081;-48
2023/03/26 19:13:40;;;;;;;20.90;8.05;;;;;;;23.95;38.19;101407.41;5095254;28;20031;-45
2023/03/26 19:16:23;;;;;;;17.38;8.02;;;;;;;24.01;37.87;101411.91;5095242;28;20453;-47
2023/03/26 19:18:51;;;;;;;15.27;7.72;;;;;;;24.04;38.07;101422.47;5095045;28;20020;-50
2023/03/26 19:21:22;;;;;;;12.75;7.63;;;;;;;24.11;37.67;101427.00;5095855;28;20547;-48
2023/03/26 19:23:51;;;;;;;15.15;7.53;;;;;;;24.03;37.72;101432.94;5094414;28;20389;-48
2023/03/26 19:26:20;;;;;;;14.88;8.07;;;;;;;24.00;37.83;101441.59;5095479;28;20040;-48
2023/03/26 19:28:50;;;;;;;14.95;7.43;;;;;;;24.04;38.09;101445.19;5094334;28;20165;-47
2023/03/26 19:31:19;;;;;;;15.55;6.72;;;;;;;24.06;37.71;101454.84;5095304;28;20465;-50
2023/03/26 19:33:56;;;;;;;12.40;7.45;;;;;;;24.00;38.15;101457.31;5093939;28;20028;-46
2023/03/26 19:36:28;;;;;;;12.40;6.40;;;;;;;24.07;38.02;101461.84;5095064;28;20122;-48
2023/03/26 19:39:11;;;;;;;12.02;6.63;;;;;;;24.12;37.95;101472.41;5095644;28;20473;-46
2023/03/26 19:41:42;;;;;;;13.60;6.93;;;;;;;24.04;38.10;101471.41;5095423;28;20036;-46
2023/03/26 19:44:22;;;;;;;11.15;6.03;;;;;;;24.09;37.73;101475.88;5094362;28;20024;-48
2023/03/26 19:46:51;;;;;;;9.77;5.78;;;;;;;24.01;38.06;101490.53;5095254;28;20031;-48
2023/03/26 19:49:47;;;;;;;9.65;5.65;;;;;;;24.03;38.02;101499.31;5093984;28;20119;-48
2023/03/26 19:52:20;;;;;;;14.20;5.78;;;;;;;24.08;37.71;101502.94;5089401;28;20036;-49
2023/03/26 19:55:09;;;;;;;12.23;6.40;;;;;;;24.02;37.92;101505.41;5095389;28;20024;-50
2023/03/26 19:57:36;;;;;;;11.52;5.70;;;;;;;24.14;37.47;101514.41;5088297;28;20041;-50
2023/03/26 20:00:12;;;;;;;11.55;5.82;;;;;;;24.16;37.61;101515.34;5095351;28;20068;-48
2023/03/26 20:02:41;;;;;;;12.07;5.60;;;;;;;24.08;38.16;101518.66;5094958;28;20089;-49
2023/03/26 20:05:23;;;;;;;9.88;5.50;;;;;;;24.08;38.01;101517.75;5094928;28;20035;-46
2023/03/26 20:07:51;;;;;;;9.38;5.30;;;;;;;24.04;38.10;101529.94;5094775;28;20028;-49
2023/03/26 20:10:19;;;;;;;9.02;4.63;;;;;;;24.01;38.16;101534.22;5094771;28;20566;-48
2023/03/26 20:12:46;;;;;;;10.23;5.13;;;;;;;24.06;38.02;101546.56;5095207;28;20034;-50
2023/03/26 20:15:26;;;;;;;8.75;4.43;;;;;;;24.03;37.90;101549.13;5093476;28;20059;-49
2023/03/26 20:17:54;;;;;;;8.65;5.03;;;;;;;24.03;37.93;101556.13;5092800;28;20054;-49
2023/03/26 20:20:25;;;;;;;7.55;4.20;;;;;;;24.10;37.71;101555.38;5094713;28;20469;-46
